Tinian Mariana Islands, Northern Mariana Islands
Current Conditions -  °F | °C
As of 10:54 AM on Friday 28 Nov 2014 (Local Time) from PGSN Reporting Station
Broken Clouds Broken Clouds  
Wind Chill: 87°   Ceiling: 3700
Heat Index: 95°   Visibility: 10mi
Dew Point: 74°   Wind: 23mph
Humidity: 65%   Direction: 70°ENE
Pressure: 29.9"   Gusts: 29mph
Location:  15.084°N, 145.652°E
Report Text: PGSN 280054Z 07020G25KT 10SM SCT028 BKN037 31/23 A2990 RMK AO2 SLP148 T03060233 PNO $
Loading
Personal Weather Stations






























Interactive Weather Map New forecast layout! Learn more

10-Day Weather Forecast

Advertisements
Track Severe Weather on mobile